Time,TemperatureF,DewpointF,PressureIn,WindDirection,WindDirectionDegrees,WindSpeedMPH,WindSpeedGustMPH,Humidity,HourlyPrecipIn,Conditions,Clouds,dailyrainin,SoftwareType,DateUTC
2013-04-25 00:00:00,31.5,27.5,29.94,NNW,338,0.0,0.0,85,0.00,,,0.00,Wunderground v.1.15,2013-04-25 05:00:00,
2013-04-25 00:30:00,31.1,27.4,29.95,NNW,338,0.0,0.0,86,0.00,,,0.00,Wunderground v.1.15,2013-04-25 05:30:00,
2013-04-25 01:00:00,31.0,27.3,29.96,NNW,338,0.0,0.0,86,0.00,,,0.00,Wunderground v.1.15,2013-04-25 06:00:00,
2013-04-25 01:30:00,30.7,27.0,29.97,NNW,338,0.0,0.0,86,0.00,,,0.00,Wunderground v.1.15,2013-04-25 06:30:00,
2013-04-25 02:00:00,30.4,26.7,29.97,NNW,338,0.0,0.0,86,0.00,,,0.00,Wunderground v.1.15,2013-04-25 07:00:00,
2013-04-25 02:30:00,29.8,26.1,29.97,NNW,338,0.0,0.0,86,0.00,,,0.00,Wunderground v.1.15,2013-04-25 07:30:00,
2013-04-25 03:00:00,29.0,25.6,29.98,NNW,338,0.0,0.0,87,0.00,,,0.00,Wunderground v.1.15,2013-04-25 08:00:00,
2013-04-25 03:30:00,28.5,25.4,29.99,NNW,338,0.0,0.0,88,0.00,,,0.00,Wunderground v.1.15,2013-04-25 08:30:00,
2013-04-25 04:00:00,28.5,25.7,30.00,NNW,338,0.0,0.0,89,0.00,,,0.00,Wunderground v.1.15,2013-04-25 09:00:00,
2013-04-25 04:30:00,28.6,25.5,30.01,NNW,338,0.0,0.0,88,0.00,,,0.00,Wunderground v.1.15,2013-04-25 09:30:00,
2013-04-25 05:00:00,28.0,24.9,30.01,NNW,338,0.0,0.0,88,0.00,,,0.00,Wunderground v.1.15,2013-04-25 10:00:00,
2013-04-25 05:30:00,27.1,24.0,30.02,NNW,338,0.0,0.0,88,0.00,,,0.00,Wunderground v.1.15,2013-04-25 10:30:00,
2013-04-25 06:00:00,26.4,23.6,30.03,NNW,338,0.0,0.0,89,0.00,,,0.00,Wunderground v.1.15,2013-04-25 11:00:00,
2013-04-25 06:30:00,25.9,23.1,30.04,NNW,338,0.0,0.0,89,0.00,,,0.00,Wunderground v.1.15,2013-04-25 11:30:00,
2013-04-25 07:00:00,25.9,23.4,30.05,NNW,338,0.0,0.0,90,0.00,,,0.00,Wunderground v.1.15,2013-04-25 12:00:00,
2013-04-25 07:30:00,27.1,24.6,30.06,NNW,338,0.0,0.0,90,0.00,,,0.00,Wunderground v.1.15,2013-04-25 12:30:00,
2013-04-25 08:01:00,29.8,26.7,30.08,NNW,338,0.0,0.0,88,0.00,,,0.00,Wunderground v.1.15,2013-04-25 13:01:00,
2013-04-25 08:30:00,32.2,27.0,30.09,NNW,338,0.0,0.0,81,0.00,,,0.00,Wunderground v.1.15,2013-04-25 13:30:00,
2013-04-25 09:00:00,33.6,27.2,30.10,NNW,338,0.0,0.0,77,0.00,,,0.00,Wunderground v.1.15,2013-04-25 14:00:00,
2013-04-25 09:30:00,34.4,27.0,30.09,West,265,0.0,0.0,74,0.00,,,0.00,Wunderground v.1.15,2013-04-25 14:30:00,
2013-04-25 10:00:00,34.5,26.7,30.11,South,182,0.0,2.0,73,0.00,,,0.00,Wunderground v.1.15,2013-04-25 15:00:00,
2013-04-25 10:30:00,35.4,27.6,30.11,NW,304,0.0,3.0,73,0.00,,,0.00,Wunderground v.1.15,2013-04-25 15:30:00,
2013-04-25 11:00:00,37.1,27.9,30.11,West,281,0.0,1.0,69,0.00,,,0.00,Wunderground v.1.15,2013-04-25 16:00:00,
2013-04-25 11:30:00,40.5,28.5,30.11,WNW,296,0.0,1.0,62,0.00,,,0.00,Wunderground v.1.15,2013-04-25 16:30:00,
2013-04-25 12:00:00,39.9,27.5,30.11,SW,221,0.0,0.0,61,0.00,,,0.00,Wunderground v.1.15,2013-04-25 17:00:00,
2013-04-25 12:30:00,40.4,27.6,30.10,South,178,1.0,1.0,60,0.00,,,0.00,Wunderground v.1.15,2013-04-25 17:30:00,
2013-04-25 13:00:00,41.9,27.3,30.09,SSW,209,2.0,2.0,56,0.00,,,0.00,Wunderground v.1.15,2013-04-25 18:00:00,
2013-04-25 13:30:00,42.1,27.5,30.08,South,171,2.0,2.0,56,0.00,,,0.00,Wunderground v.1.15,2013-04-25 18:30:00,
2013-04-25 14:00:00,43.2,26.3,30.07,SSW,209,2.0,2.0,51,0.00,,,0.00,Wunderground v.1.15,2013-04-25 19:00:00,
2013-04-25 14:30:00,44.0,26.0,30.07,SSW,213,2.0,2.0,49,0.00,,,0.00,Wunderground v.1.15,2013-04-25 19:30:00,
2013-04-25 15:00:00,44.0,27.5,30.07,SSW,212,2.0,2.0,52,0.00,,,0.00,Wunderground v.1.15,2013-04-25 20:00:00,
2013-04-25 15:30:00,44.3,25.8,30.07,SSE,161,2.0,3.0,48,0.00,,,0.00,Wunderground v.1.15,2013-04-25 20:30:00,
2013-04-25 16:00:00,43.2,25.3,30.06,SSW,203,3.0,3.0,49,0.00,,,0.00,Wunderground v.1.15,2013-04-25 21:00:00,
2013-04-25 16:30:00,44.1,23.6,30.06,SE,136,3.0,4.0,44,0.00,,,0.00,Wunderground v.1.15,2013-04-25 21:30:00,
2013-04-25 17:00:00,43.7,23.2,30.07,SSW,202,2.0,2.0,44,0.00,,,0.00,Wunderground v.1.15,2013-04-25 22:00:00,
2013-04-25 17:30:00,43.5,24.6,30.06,SSW,194,2.0,2.0,47,0.00,,,0.00,Wunderground v.1.15,2013-04-25 22:30:00,
2013-04-25 18:00:00,43.2,25.3,30.05,South,184,2.0,2.0,49,0.00,,,0.00,Wunderground v.1.15,2013-04-25 23:00:00,
2013-04-25 18:30:00,43.0,26.6,30.04,SSE,148,2.0,2.0,52,0.00,,,0.00,Wunderground v.1.15,2013-04-25 23:30:00,
2013-04-25 19:00:00,42.3,25.9,30.04,SSW,200,0.0,3.0,52,0.00,,,0.00,Wunderground v.1.15,2013-04-26 00:00:00,
2013-04-25 19:30:00,41.3,26.3,30.04,SSE,159,0.0,0.0,55,0.00,,,0.00,Wunderground v.1.15,2013-04-26 00:30:00,
2013-04-25 20:00:00,40.3,26.7,30.03,South,175,0.0,0.0,58,0.00,,,0.00,Wunderground v.1.15,2013-04-26 01:00:00,
2013-04-25 20:30:00,39.6,26.4,30.04,South,175,0.0,0.0,59,0.00,,,0.00,Wunderground v.1.15,2013-04-26 01:30:00,
2013-04-25 21:00:00,38.6,26.7,30.03,South,175,0.0,0.0,62,0.00,,,0.00,Wunderground v.1.15,2013-04-26 02:00:00,
2013-04-25 21:30:00,37.8,27.5,30.03,South,175,0.0,1.0,66,0.00,,,0.00,Wunderground v.1.15,2013-04-26 02:30:00,
2013-04-25 22:00:00,38.0,27.3,30.03,South,175,0.0,0.0,65,0.00,,,0.00,Wunderground v.1.15,2013-04-26 03:00:00,
2013-04-25 22:30:00,38.8,28.8,30.02,SSE,152,0.0,0.0,67,0.00,,,0.00,Wunderground v.1.15,2013-04-26 03:30:00,
2013-04-25 23:00:00,39.1,29.1,30.02,SSE,159,0.0,0.0,67,0.00,,,0.00,Wunderground v.1.15,2013-04-26 04:00:00,
2013-04-25 23:30:00,39.0,29.7,30.01,SSE,158,0.0,0.0,69,0.00,,,0.00,Wunderground v.1.15,2013-04-26 04:30:00,